createdAt,value
2018-04-08T10:57:36.060Z,64.00
2018-04-08T11:00:14.926Z,63.80
2018-04-08T11:03:03.738Z,64.10
2018-04-08T11:05:35.572Z,64.30
2018-04-08T11:08:18.850Z,64.40
2018-04-08T11:11:08.921Z,64.80
2018-04-08T11:16:16.671Z,63.00
2018-04-08T11:19:10.510Z,64.70
2018-04-08T11:24:43.796Z,65.00
2018-04-08T11:27:21.896Z,65.30
2018-04-08T11:33:16.700Z,66.30
2018-04-08T11:35:44.256Z,67.10
2018-04-08T11:41:39.906Z,65.20
2018-04-08T11:44:42.101Z,66.80
2018-04-08T11:50:32.287Z,66.10
2018-04-08T11:56:03.859Z,65.30
2018-04-08T11:58:54.425Z,65.20
2018-04-08T12:01:21.953Z,66.20
2018-04-08T12:03:49.480Z,65.70
2018-04-08T12:06:31.666Z,64.50
2018-04-08T12:08:59.599Z,62.60
2018-04-08T12:11:27.145Z,62.90
2018-04-08T12:13:54.687Z,62.90
2018-04-08T12:16:23.825Z,62.10
2018-04-08T12:18:53.065Z,62.60
2018-04-08T12:21:22.241Z,62.00
2018-04-08T12:23:50.503Z,62.00
2018-04-08T12:29:08.155Z,62.20
2018-04-08T12:31:36.565Z,61.50
2018-04-08T12:34:06.189Z,60.70
2018-04-08T12:36:58.109Z,60.50
2018-04-08T12:39:36.531Z,61.70
2018-04-08T12:45:08.781Z,63.40
2018-04-08T12:47:37.250Z,63.30
2018-04-08T12:50:14.141Z,62.00
2018-04-08T12:56:02.126Z,63.10
2018-04-08T12:58:51.862Z,64.90
2018-04-08T13:04:36.362Z,64.40
2018-04-08T13:07:31.329Z,64.20
2018-04-08T13:16:25.281Z,64.20
2018-04-08T13:28:02.413Z,64.00
2018-04-08T13:30:30.917Z,63.80
2018-04-08T13:33:01.055Z,64.60
2018-04-08T13:35:36.614Z,63.80
2018-04-08T13:38:18.238Z,64.00
2018-04-08T13:40:49.417Z,64.30
2018-04-08T13:46:00.439Z,63.10
2018-04-08T13:48:37.429Z,63.20
2018-04-08T13:51:05.768Z,63.50
2018-04-08T13:53:34.122Z,63.60
2018-04-08T13:56:17.241Z,61.90
2018-04-08T13:58:44.754Z,61.80
2018-04-08T14:01:12.395Z,62.30
2018-04-08T14:03:39.935Z,61.60
2018-04-08T14:06:07.510Z,60.90
2018-04-08T14:08:35.066Z,60.30
2018-04-08T14:11:02.597Z,60.70
2018-04-08T14:13:32.306Z,60.30
2018-04-08T14:16:28.783Z,60.10
2018-04-08T14:18:57.750Z,59.50
2018-04-08T14:21:28.399Z,58.50
2018-04-08T14:23:58.185Z,58.90
2018-04-08T14:26:29.312Z,58.20
2018-04-08T14:28:58.058Z,58.20
2018-04-08T14:31:34.284Z,56.90
2018-04-08T14:34:02.057Z,56.90
2018-04-08T14:36:31.258Z,55.70
2018-04-08T14:38:59.744Z,54.80
2018-04-08T14:44:21.266Z,54.10
2018-04-08T14:46:48.785Z,53.20
2018-04-08T14:49:16.319Z,53.90
2018-04-08T14:51:43.855Z,54.20
2018-04-08T14:54:12.190Z,54.20
2018-04-08T14:56:41.455Z,54.10
2018-04-08T14:59:10.993Z,53.50
2018-04-08T15:01:46.662Z,53.40
2018-04-08T15:04:09.255Z,53.00
2018-04-08T15:06:44.901Z,53.40
2018-04-08T15:09:12.580Z,53.90
2018-04-08T15:11:40.169Z,53.90
2018-04-08T15:14:21.218Z,54.60
2018-04-08T15:23:21.528Z,55.80
2018-04-08T15:26:05.414Z,56.30
2018-04-08T15:28:34.218Z,56.20
2018-04-08T15:31:05.534Z,56.90
2018-04-08T15:33:51.147Z,57.40
2018-04-08T15:36:46.117Z,58.70
2018-04-08T18:30:05.123Z,86.10
2018-04-08T18:32:53.098Z,86.00
2018-04-08T18:38:46.504Z,88.30
2018-04-08T18:53:47.791Z,90.00
2018-04-08T18:56:36.930Z,90.00
2018-04-08T19:11:21.214Z,91.10
2018-04-08T19:14:12.242Z,91.70
2018-04-08T19:16:59.173Z,91.90
2018-04-08T19:22:35.745Z,92.10
2018-04-08T19:25:16.494Z,92.10
2018-04-08T19:31:05.614Z,92.60
2018-04-08T19:36:42.401Z,92.80
2018-04-08T19:39:30.739Z,92.90
2018-04-08T19:42:17.832Z,93.00
2018-04-08T19:44:58.079Z,93.30
2018-04-08T19:47:38.771Z,93.70
2018-04-08T19:53:11.655Z,93.80
2018-04-08T19:55:52.416Z,93.90
2018-04-08T19:58:39.258Z,93.90
2018-04-08T20:04:13.692Z,94.20
2018-04-08T20:06:54.741Z,94.80
2018-04-08T20:09:36.648Z,94.80
2018-04-08T20:12:19.914Z,95.60
2018-04-08T20:15:00.605Z,95.50
2018-04-08T20:17:42.160Z,95.60
2018-04-08T20:20:23.152Z,96.90
2018-04-08T20:23:04.131Z,96.80
2018-04-08T20:25:50.621Z,97.40
2018-04-08T20:28:36.824Z,96.70
2018-04-08T20:31:18.308Z,97.10
2018-04-08T20:33:59.862Z,97.00
2018-04-08T20:36:41.919Z,97.50
2018-04-08T20:39:24.215Z,98.10
2018-04-08T20:42:07.022Z,98.40
2018-04-08T20:44:47.849Z,98.40
2018-04-08T20:47:28.374Z,98.50
2018-04-08T20:50:10.041Z,99.00
2018-04-08T20:52:53.149Z,99.10
2018-04-08T20:55:37.419Z,99.60
2018-04-08T20:58:19.967Z,99.70
2018-04-08T21:01:00.814Z,99.90
2018-04-08T21:03:43.478Z,99.90
2018-04-08T21:06:25.837Z,99.90
2018-04-08T21:09:07.846Z,99.90
2018-04-08T21:11:50.669Z,99.90
2018-04-08T21:14:33.925Z,99.90
2018-04-08T21:17:15.524Z,99.90
2018-04-08T21:20:00.865Z,99.90
2018-04-08T21:22:40.927Z,99.90
2018-04-08T21:25:22.841Z,99.90
2018-04-08T21:28:04.333Z,99.90
2018-04-08T21:33:36.075Z,99.90
2018-04-08T21:36:16.437Z,99.90
2018-04-08T21:39:00.919Z,99.90
2018-04-08T21:41:42.677Z,99.90
2018-04-08T21:44:24.376Z,99.90
2018-04-08T21:47:05.838Z,99.90
2018-04-08T21:49:47.132Z,99.90
2018-04-08T21:52:30.153Z,99.90
2018-04-08T21:55:12.142Z,99.90
2018-04-08T21:57:54.292Z,99.90
2018-04-08T22:00:38.848Z,99.90
2018-04-08T22:03:21.062Z,99.90
2018-04-08T22:06:02.985Z,99.90
2018-04-08T22:08:44.148Z,99.90
2018-04-08T22:11:26.400Z,99.90
2018-04-08T22:14:06.302Z,99.90
2018-04-08T22:16:51.551Z,99.90
2018-04-08T22:19:32.784Z,99.90
2018-04-08T22:22:14.348Z,99.90
2018-04-08T22:24:55.552Z,99.90
2018-04-08T22:27:39.128Z,99.90
2018-04-08T22:30:19.992Z,99.90
2018-04-08T22:33:01.480Z,99.90
2018-04-08T22:35:42.656Z,99.90
2018-04-08T22:38:23.775Z,99.90
2018-04-08T22:41:04.468Z,99.90
2018-04-08T22:43:45.123Z,99.90
2018-04-08T22:46:25.632Z,99.90
2018-04-08T22:49:11.662Z,99.90
2018-04-08T22:51:53.000Z,99.90
2018-04-08T22:54:34.018Z,99.90
2018-04-08T22:57:17.111Z,99.90
2018-04-08T22:59:58.336Z,99.90
2018-04-08T23:02:38.343Z,99.90
2018-04-08T23:05:06.659Z,99.90
2018-04-08T23:07:50.067Z,99.90
2018-04-08T23:10:30.738Z,99.90
2018-04-08T23:13:11.388Z,99.90
2018-04-08T23:15:53.423Z,99.90
2018-04-08T23:18:36.845Z,99.90
2018-04-08T23:21:17.338Z,99.90
2018-04-08T23:23:59.805Z,99.90
2018-04-08T23:26:42.925Z,99.90
2018-04-08T23:32:23.281Z,99.90
2018-04-08T23:35:06.972Z,99.90
2018-04-08T23:37:48.004Z,99.90
2018-04-08T23:40:29.341Z,99.90
2018-04-08T23:43:10.476Z,99.90
2018-04-08T23:45:51.751Z,99.90
2018-04-08T23:48:33.885Z,99.90
2018-04-08T23:51:14.712Z,99.90
2018-04-08T23:53:54.170Z,99.90
2018-04-08T23:56:36.697Z,99.90
2018-04-08T23:59:17.221Z,99.90
